Time,TemperatureF,DewpointF,PressureIn,WindDirection,WindDirectionDegrees,WindSpeedMPH,WindSpeedGustMPH,Humidity,HourlyPrecipIn,Conditions,Clouds,dailyrainin,SoftwareType,DateUTC
2013-02-22 00:00:00,42.4,13.1,30.21,NE,45,0.0,0.0,30,0.00,CLR,,0.00,WeatherDisplay:10.37,2013-02-22 05:00:00,
2013-02-22 00:06:00,42.4,13.1,30.21,NE,45,0.0,0.0,30,0.00,CLR,,0.00,WeatherDisplay:10.37,2013-02-22 05:06:00,
2013-02-22 00:11:00,42.3,13.0,30.21,NE,45,0.0,0.0,30,0.00,CLR,,0.00,WeatherDisplay:10.37,2013-02-22 05:11:00,
2013-02-22 00:16:00,42.4,12.4,30.24,NE,45,0.0,0.0,29,0.00,CLR,,0.00,WeatherDisplay:10.37,2013-02-22 05:16:00,
2013-02-22 00:21:00,42.4,12.4,30.24,NE,45,0.0,0.0,29,0.00,CLR,,0.00,WeatherDisplay:10.37,2013-02-22 05:21:00,
2013-02-22 00:26:00,42.4,12.4,30.24,NE,45,0.0,0.0,29,0.00,CLR,,0.00,WeatherDisplay:10.37,2013-02-22 05:26:00,
2013-02-22 00:31:00,42.3,13.0,30.24,NE,45,0.0,0.0,30,0.00,CLR,,0.00,WeatherDisplay:10.37,2013-02-22 05:31:00,
2013-02-22 00:36:00,42.3,13.0,30.24,NE,45,0.0,0.0,30,0.00,CLR,,0.00,WeatherDisplay:10.37,2013-02-22 05:36:00,
2013-02-22 00:41:00,42.3,12.2,30.24,NE,45,0.0,0.0,29,0.00,CLR,,0.00,WeatherDisplay:10.37,2013-02-22 05:41:00,
2013-02-22 00:46:00,42.1,12.1,30.27,NE,45,0.0,0.0,29,0.00,CLR,,0.00,WeatherDisplay:10.37,2013-02-22 05:46:00,
2013-02-22 00:51:00,42.1,12.8,30.27,NE,45,0.0,0.0,30,0.00,CLR,,0.00,WeatherDisplay:10.37,2013-02-22 05:51:00,
2013-02-22 00:56:00,42.1,12.8,30.27,NE,45,0.0,0.0,30,0.00,CLR,,0.00,WeatherDisplay:10.37,2013-02-22 05:56:00,
2013-02-22 01:01:00,41.9,12.7,30.27,NE,45,0.0,0.0,30,0.00,CLR,,0.00,WeatherDisplay:10.37,2013-02-22 06:01:00,
2013-02-22 01:06:00,41.9,11.9,30.27,NE,45,0.0,0.0,29,0.00,CLR,,0.00,WeatherDisplay:10.37,2013-02-22 06:06:00,
2013-02-22 01:11:00,41.9,12.7,30.27,NE,45,0.0,0.0,30,0.00,CLR,,0.00,WeatherDisplay:10.37,2013-02-22 06:11:00,
2013-02-22 01:16:00,41.7,12.5,30.30,NE,45,0.0,0.0,30,0.00,CLR,,0.00,WeatherDisplay:10.37,2013-02-22 06:16:00,
2013-02-22 01:21:00,41.7,13.3,30.30,NE,45,0.0,0.0,31,0.00,CLR,,0.00,WeatherDisplay:10.37,2013-02-22 06:21:00,
2013-02-22 01:26:00,41.7,14.0,30.30,NE,45,0.0,0.0,32,0.00,CLR,,0.00,WeatherDisplay:10.37,2013-02-22 06:26:00,
2013-02-22 01:31:00,41.5,13.8,30.33,NE,45,0.0,0.0,32,0.00,CLR,,0.00,WeatherDisplay:10.37,2013-02-22 06:31:00,
2013-02-22 01:36:00,41.5,14.5,30.33,NE,45,0.0,0.0,33,0.00,CLR,,0.00,WeatherDisplay:10.37,2013-02-22 06:36:00,
2013-02-22 01:41:00,41.4,15.7,30.33,NE,45,0.0,0.0,35,0.00,CLR,,0.00,WeatherDisplay:10.37,2013-02-22 06:41:00,
2013-02-22 01:46:00,41.2,17.5,30.30,NE,45,0.0,0.0,38,0.00,CLR,,0.00,WeatherDisplay:10.37,2013-02-22 06:46:00,
2013-02-22 01:51:00,41.0,16.0,30.30,NE,45,0.0,0.0,36,0.00,CLR,,0.00,WeatherDisplay:10.37,2013-02-22 06:51:00,
2013-02-22 01:56:00,40.8,15.9,30.30,NE,45,0.0,0.0,36,0.00,CLR,,0.00,WeatherDisplay:10.37,2013-02-22 06:56:00,
2013-02-22 02:01:00,40.8,15.2,30.30,NE,45,0.0,0.0,35,0.00,CLR,,0.00,WeatherDisplay:10.37,2013-02-22 07:01:00,
2013-02-22 02:06:00,40.6,15.1,30.30,NE,45,0.0,0.0,35,0.00,CLR,,0.00,WeatherDisplay:10.37,2013-02-22 07:06:00,
2013-02-22 02:11:00,40.5,15.6,30.30,NE,45,0.0,0.0,36,0.00,CLR,,0.00,WeatherDisplay:10.37,2013-02-22 07:11:00,
2013-02-22 02:16:00,39.9,16.9,30.27,NE,45,0.0,0.0,39,0.00,CLR,,0.00,WeatherDisplay:10.37,2013-02-22 07:16:00,
2013-02-22 02:21:00,39.4,18.7,30.27,NE,45,0.0,0.0,43,0.00,CLR,,0.00,WeatherDisplay:10.37,2013-02-22 07:21:00,
2013-02-22 02:26:00,38.3,20.3,30.27,NE,45,0.0,0.0,48,0.00,CLR,,0.00,WeatherDisplay:10.37,2013-02-22 07:26:00,
2013-02-22 02:31:00,37.9,21.4,30.30,NE,45,0.0,0.0,51,0.00,CLR,,0.00,WeatherDisplay:10.37,2013-02-22 07:31:00,
2013-02-22 02:36:00,37.4,22.3,30.30,NE,45,0.0,0.0,54,0.00,CLR,,0.00,WeatherDisplay:10.37,2013-02-22 07:36:00,
2013-02-22 02:41:00,36.7,23.7,30.30,NE,45,0.0,0.0,59,0.00,CLR,,0.00,WeatherDisplay:10.37,2013-02-22 07:41:00,
2013-02-22 02:46:00,36.0,25.3,30.27,NE,45,0.0,0.0,65,0.00,CLR,,0.00,WeatherDisplay:10.37,2013-02-22 07:46:00,
2013-02-22 02:51:00,35.8,26.6,30.27,NE,45,0.0,0.0,69,0.00,CLR,,0.00,WeatherDisplay:10.37,2013-02-22 07:51:00,
2013-02-22 02:56:00,35.6,27.5,30.27,NE,45,0.0,0.0,72,0.04,RA,,0.04,WeatherDisplay:10.37,2013-02-22 07:56:00,
2013-02-22 03:01:00,35.4,28.3,30.27,NE,45,0.0,0.0,75,0.04,RA,,0.04,WeatherDisplay:10.37,2013-02-22 08:01:00,
2013-02-22 03:06:00,35.2,28.4,30.27,NE,45,0.0,0.0,76,0.04,,,0.04,WeatherDisplay:10.37,2013-02-22 08:06:00,
2013-02-22 03:11:00,35.1,28.9,30.27,NE,45,0.0,0.0,78,0.04,CLR,,0.04,WeatherDisplay:10.37,2013-02-22 08:11:00,
2013-02-22 03:16:00,34.9,29.3,30.30,NE,45,0.0,0.0,80,0.04,CLR,,0.04,WeatherDisplay:10.37,2013-02-22 08:16:00,
2013-02-22 03:21:00,34.9,29.9,30.30,NE,45,0.0,0.0,82,0.04,CLR,,0.04,WeatherDisplay:10.37,2013-02-22 08:21:00,
2013-02-22 03:26:00,34.9,30.5,30.30,NE,45,0.0,0.0,84,0.04,CLR,,0.04,WeatherDisplay:10.37,2013-02-22 08:26:00,
2013-02-22 03:31:00,34.9,30.8,30.30,NE,45,0.0,0.0,85,0.08,RA,,0.08,WeatherDisplay:10.37,2013-02-22 08:31:00,
2013-02-22 03:36:00,34.9,31.1,30.30,NE,45,0.0,0.0,86,0.08,RA,,0.08,WeatherDisplay:10.37,2013-02-22 08:36:00,
2013-02-22 03:41:00,34.9,31.4,30.30,NE,45,0.0,0.0,87,0.08,,,0.08,WeatherDisplay:10.37,2013-02-22 08:41:00,
2013-02-22 03:46:00,34.7,31.5,30.30,NE,45,0.0,0.0,88,0.08,CLR,,0.08,WeatherDisplay:10.37,2013-02-22 08:46:00,
2013-02-22 03:51:00,34.7,31.8,30.30,NE,45,0.0,0.0,89,0.08,CLR,,0.08,WeatherDisplay:10.37,2013-02-22 08:51:00,
2013-02-22 03:56:00,34.7,31.8,30.30,NE,45,0.0,0.0,89,0.04,CLR,,0.08,WeatherDisplay:10.37,2013-02-22 08:56:00,
2013-02-22 04:01:00,34.7,32.1,30.30,NE,45,0.0,0.0,90,0.04,CLR,,0.08,WeatherDisplay:10.37,2013-02-22 09:01:00,
2013-02-22 04:06:00,34.5,31.9,30.30,NE,45,0.0,0.0,90,0.04,CLR,,0.08,WeatherDisplay:10.37,2013-02-22 09:06:00,
2013-02-22 04:11:00,34.3,31.7,30.30,NE,45,0.0,0.0,90,0.04,CLR,,0.08,WeatherDisplay:10.37,2013-02-22 09:11:00,
2013-02-22 04:16:00,34.3,32.0,30.27,NE,45,0.0,0.0,91,0.04,CLR,,0.08,WeatherDisplay:10.37,2013-02-22 09:16:00,
2013-02-22 04:21:00,34.2,31.8,30.27,NE,45,0.0,0.0,91,0.04,CLR,,0.08,WeatherDisplay:10.37,2013-02-22 09:21:00,
2013-02-22 04:26:00,34.0,31.6,30.27,NE,45,0.0,0.0,91,0.04,CLR,,0.08,WeatherDisplay:10.37,2013-02-22 09:26:00,
2013-02-22 04:31:00,34.0,31.9,30.27,NE,45,0.0,0.0,92,0.04,RA,,0.12,WeatherDisplay:10.37,2013-02-22 09:31:00,
2013-02-22 04:36:00,34.0,31.9,30.27,NE,45,0.0,0.0,92,0.04,RA,,0.12,WeatherDisplay:10.37,2013-02-22 09:36:00,
2013-02-22 04:41:00,33.8,31.7,30.27,NE,45,0.0,0.0,92,0.04,,,0.12,WeatherDisplay:10.37,2013-02-22 09:41:00,
2013-02-22 04:46:00,33.8,31.7,30.24,NE,45,0.0,0.0,92,0.04,CLR,,0.12,WeatherDisplay:10.37,2013-02-22 09:46:00,
2013-02-22 04:51:00,33.6,31.8,30.24,NE,45,0.0,0.0,93,0.04,CLR,,0.12,WeatherDisplay:10.37,2013-02-22 09:51:00,
2013-02-22 04:56:00,33.6,31.8,30.24,NE,45,0.0,0.0,93,0.04,CLR,,0.12,WeatherDisplay:10.37,2013-02-22 09:56:00,
2013-02-22 05:01:00,33.6,31.8,30.24,NE,45,0.0,0.0,93,0.04,CLR,,0.12,WeatherDisplay:10.37,2013-02-22 10:01:00,
2013-02-22 05:06:00,33.6,31.8,30.24,NE,45,0.0,0.0,93,0.04,CLR,,0.12,WeatherDisplay:10.37,2013-02-22 10:06:00,
2013-02-22 05:11:00,33.6,31.8,30.24,NE,45,0.0,0.0,93,0.04,CLR,,0.12,WeatherDisplay:10.37,2013-02-22 10:11:00,
2013-02-22 05:16:00,33.4,31.6,30.21,NE,45,0.0,0.0,93,0.04,CLR,,0.12,WeatherDisplay:10.37,2013-02-22 10:16:00,
2013-02-22 05:21:00,33.3,31.5,30.21,NE,45,0.0,0.0,93,0.04,CLR,,0.12,WeatherDisplay:10.37,2013-02-22 10:21:00,
2013-02-22 05:26:00,33.3,31.5,30.21,NE,45,0.0,0.0,93,0.04,CLR,,0.12,WeatherDisplay:10.37,2013-02-22 10:26:00,
2013-02-22 05:31:00,33.1,31.3,30.24,NE,45,0.0,0.0,93,0.04,RA,,0.16,WeatherDisplay:10.37,2013-02-22 10:31:00,
2013-02-22 05:36:00,33.1,31.3,30.24,NE,45,0.0,0.0,93,0.04,RA,,0.16,WeatherDisplay:10.37,2013-02-22 10:36:00,
2013-02-22 05:41:00,33.1,31.3,30.24,NE,45,0.0,0.0,93,0.04,CLR,,0.16,WeatherDisplay:10.37,2013-02-22 10:41:00,
2013-02-22 05:46:00,33.1,31.3,30.21,NE,45,0.0,0.0,93,0.04,CLR,,0.16,WeatherDisplay:10.37,2013-02-22 10:46:00,
2013-02-22 05:51:00,33.1,31.3,30.21,SE,135,0.0,0.0,93,0.04,CLR,,0.16,WeatherDisplay:10.37,2013-02-22 10:51:00,
2013-02-22 05:56:00,32.9,31.1,30.21,SE,135,0.0,0.0,93,0.04,CLR,,0.16,WeatherDisplay:10.37,2013-02-22 10:56:00,
2013-02-22 06:01:00,32.9,31.1,30.24,SE,135,0.0,0.0,93,0.04,CLR,,0.16,WeatherDisplay:10.37,2013-02-22 11:01:00,
2013-02-22 06:06:00,32.7,30.9,30.24,SE,135,0.0,0.0,93,0.04,CLR,,0.16,WeatherDisplay:10.37,2013-02-22 11:06:00,
2013-02-22 06:11:00,32.7,30.9,30.24,North,0,0.0,0.0,93,0.04,CLR,,0.16,WeatherDisplay:10.37,2013-02-22 11:11:00,
2013-02-22 06:16:00,32.9,31.1,30.24,North,0,0.0,0.0,93,0.04,CLR,,0.16,WeatherDisplay:10.37,2013-02-22 11:16:00,
2013-02-22 06:21:00,32.9,31.4,30.24,North,0,0.0,0.0,94,0.04,CLR,,0.16,WeatherDisplay:10.37,2013-02-22 11:21:00,
2013-02-22 06:26:00,32.9,31.4,30.24,North,0,0.0,0.0,94,0.04,CLR,,0.16,WeatherDisplay:10.37,2013-02-22 11:26:00,
2013-02-22 06:31:00,32.9,31.4,30.27,North,0,0.0,0.0,94,0.00,CLR,,0.16,WeatherDisplay:10.37,2013-02-22 11:31:00,
2013-02-22 06:36:00,32.9,31.6,30.27,North,0,0.0,0.0,95,0.00,CLR,,0.16,WeatherDisplay:10.37,2013-02-22 11:36:00,
2013-02-22 06:41:00,32.9,31.6,30.27,North,0,0.0,0.0,95,0.00,CLR,,0.16,WeatherDisplay:10.37,2013-02-22 11:41:00,
2013-02-22 06:46:00,32.9,31.6,30.27,North,0,0.0,0.0,95,0.00,CLR,,0.16,WeatherDisplay:10.37,2013-02-22 11:46:00,
2013-02-22 06:51:00,32.9,31.6,30.27,North,0,0.0,0.0,95,0.00,CLR,,0.16,WeatherDisplay:10.37,2013-02-22 11:51:00,
2013-02-22 06:56:00,32.9,31.6,30.27,North,0,0.0,0.0,95,0.00,CLR,,0.16,WeatherDisplay:10.37,2013-02-22 11:56:00,
2013-02-22 07:01:00,32.9,31.6,30.24,North,0,0.0,0.0,95,0.00,CLR,,0.16,WeatherDisplay:10.37,2013-02-22 12:01:00,
2013-02-22 07:06:00,32.9,31.9,30.24,North,0,0.0,0.0,96,0.00,CLR,,0.16,WeatherDisplay:10.37,2013-02-22 12:06:00,
2013-02-22 07:11:00,32.9,31.9,30.24,North,0,0.0,0.0,96,0.00,CLR,,0.16,WeatherDisplay:10.37,2013-02-22 12:11:00,
2013-02-22 07:16:00,32.9,31.9,30.27,North,0,0.0,0.0,96,0.00,CLR,,0.16,WeatherDisplay:10.37,2013-02-22 12:16:00,
2013-02-22 07:21:00,33.1,32.1,30.27,North,0,0.0,0.0,96,0.00,CLR,,0.16,WeatherDisplay:10.37,2013-02-22 12:21:00,
2013-02-22 07:26:00,33.1,32.1,30.27,North,0,0.0,0.0,96,0.00,CLR,,0.16,WeatherDisplay:10.37,2013-02-22 12:26:00,
2013-02-22 07:31:00,33.1,32.1,30.30,North,0,0.0,0.0,96,0.00,CLR,,0.16,WeatherDisplay:10.37,2013-02-22 12:31:00,
2013-02-22 07:36:00,33.1,32.3,30.30,North,0,0.0,0.0,97,0.00,CLR,,0.16,WeatherDisplay:10.37,2013-02-22 12:36:00,
2013-02-22 07:41:00,33.1,32.3,30.30,North,0,0.0,0.0,97,0.00,CLR,,0.16,WeatherDisplay:10.37,2013-02-22 12:41:00,
2013-02-22 07:46:00,33.3,32.5,30.30,North,0,0.0,0.0,97,0.00,CLR,,0.16,WeatherDisplay:10.37,2013-02-22 12:46:00,
2013-02-22 07:51:00,33.3,32.5,30.30,North,0,0.0,0.0,97,0.00,CLR,,0.16,WeatherDisplay:10.37,2013-02-22 12:51:00,
2013-02-22 07:56:00,33.4,32.7,30.30,North,0,0.0,0.0,97,0.00,CLR,,0.16,WeatherDisplay:10.37,2013-02-22 12:56:00,
2013-02-22 08:01:00,33.4,32.7,30.33,North,0,0.0,0.0,97,0.00,CLR,,0.16,WeatherDisplay:10.37,2013-02-22 13:01:00,
2013-02-22 08:06:00,33.4,32.7,30.33,North,0,0.0,0.0,97,0.00,CLR,,0.16,WeatherDisplay:10.37,2013-02-22 13:06:00,
2013-02-22 08:11:00,33.6,32.9,30.33,North,0,0.0,0.0,97,0.00,CLR,,0.16,WeatherDisplay:10.37,2013-02-22 13:11:00,
2013-02-22 08:16:00,33.6,32.9,30.30,North,0,0.0,0.0,97,0.00,CLR,,0.16,WeatherDisplay:10.37,2013-02-22 13:16:00,
2013-02-22 08:21:00,33.8,33.0,30.30,North,0,0.0,0.0,97,0.00,CLR,,0.16,WeatherDisplay:10.37,2013-02-22 13:21:00,
2013-02-22 08:26:00,34.0,33.2,30.30,North,0,0.0,0.0,97,0.00,CLR,,0.16,WeatherDisplay:10.37,2013-02-22 13:26:00,
2013-02-22 08:31:00,33.8,33.0,30.30,North,0,0.0,0.0,97,0.00,CLR,,0.16,WeatherDisplay:10.37,2013-02-22 13:31:00,
2013-02-22 08:36:00,33.8,32.8,30.30,NNE,22,0.0,0.0,96,0.00,CLR,,0.16,WeatherDisplay:10.37,2013-02-22 13:36:00,
2013-02-22 08:41:00,33.8,32.8,30.30,NNE,22,0.0,0.0,96,0.00,CLR,,0.16,WeatherDisplay:10.37,2013-02-22 13:41:00,
2013-02-22 08:46:00,33.8,32.8,30.30,NNE,22,0.0,0.0,96,0.00,CLR,,0.16,WeatherDisplay:10.37,2013-02-22 13:46:00,
2013-02-22 08:51:00,33.8,32.5,30.30,NNE,22,0.0,0.0,95,0.00,CLR,,0.16,WeatherDisplay:10.37,2013-02-22 13:51:00,
2013-02-22 08:56:00,33.8,32.5,30.30,NNE,22,0.0,0.0,95,0.00,CLR,,0.16,WeatherDisplay:10.37,2013-02-22 13:56:00,
2013-02-22 09:01:00,33.8,32.3,30.30,NNE,22,0.0,0.0,94,0.00,CLR,,0.16,WeatherDisplay:10.37,2013-02-22 14:01:00,
2013-02-22 09:06:00,33.8,32.3,30.30,NNE,22,0.0,0.0,94,0.00,CLR,,0.16,WeatherDisplay:10.37,2013-02-22 14:06:00,
2013-02-22 09:11:00,33.8,32.0,30.30,NNE,22,0.0,0.0,93,0.00,CLR,,0.16,WeatherDisplay:10.37,2013-02-22 14:11:00,
2013-02-22 09:16:00,34.0,32.2,30.30,NNE,22,0.0,0.0,93,0.00,CLR,,0.16,WeatherDisplay:10.37,2013-02-22 14:16:00,
2013-02-22 09:21:00,34.0,31.9,30.30,NNE,22,0.0,0.0,92,0.00,CLR,,0.16,WeatherDisplay:10.37,2013-02-22 14:21:00,
2013-02-22 09:26:00,34.2,31.8,30.30,NNE,22,0.0,0.0,91,0.00,CLR,,0.16,WeatherDisplay:10.37,2013-02-22 14:26:00,
2013-02-22 09:31:00,34.2,31.8,30.30,NNE,22,0.0,0.0,91,0.00,CLR,,0.16,WeatherDisplay:10.37,2013-02-22 14:31:00,
2013-02-22 09:36:00,34.3,31.7,30.30,NNE,22,0.0,0.0,90,0.00,CLR,,0.16,WeatherDisplay:10.37,2013-02-22 14:36:00,
2013-02-22 09:41:00,34.5,31.6,30.30,NNE,22,0.0,0.0,89,0.00,CLR,,0.16,WeatherDisplay:10.37,2013-02-22 14:41:00,
2013-02-22 09:46:00,34.3,31.2,30.27,SE,135,0.0,0.0,88,0.04,RA,,0.20,WeatherDisplay:10.37,2013-02-22 14:46:00,
2013-02-22 09:51:00,34.5,31.0,30.27,ESE,112,0.0,0.0,87,0.04,RA,,0.20,WeatherDisplay:10.37,2013-02-22 14:51:00,
2013-02-22 09:56:00,34.5,30.5,30.27,South,180,0.0,0.0,85,0.04,,,0.20,WeatherDisplay:10.37,2013-02-22 14:56:00,
2013-02-22 10:01:00,34.7,30.4,30.27,SE,135,0.0,0.0,84,0.04,CLR,,0.20,WeatherDisplay:10.37,2013-02-22 15:01:00,
2013-02-22 10:06:00,34.7,30.1,30.27,SE,135,0.0,0.0,83,0.04,CLR,,0.20,WeatherDisplay:10.37,2013-02-22 15:06:00,
2013-02-22 10:11:00,34.7,29.8,30.27,NNW,338,0.0,0.0,82,0.04,CLR,,0.20,WeatherDisplay:10.37,2013-02-22 15:11:00,
2013-02-22 10:16:00,35.1,29.8,30.27,SSE,158,0.0,0.0,81,0.04,CLR,,0.20,WeatherDisplay:10.37,2013-02-22 15:16:00,
2013-02-22 10:21:00,35.2,29.4,30.27,ESE,112,0.0,0.0,79,0.04,CLR,,0.20,WeatherDisplay:10.37,2013-02-22 15:21:00,
2013-02-22 10:26:00,35.4,29.2,30.27,North,0,0.0,0.0,78,0.04,CLR,,0.20,WeatherDisplay:10.37,2013-02-22 15:26:00,
2013-02-22 10:31:00,35.6,29.1,30.27,SE,135,2.3,0.0,77,0.04,CLR,,0.20,WeatherDisplay:10.37,2013-02-22 15:31:00,
2013-02-22 10:36:00,35.8,29.0,30.27,North,0,0.0,0.0,76,0.04,CLR,,0.20,WeatherDisplay:10.37,2013-02-22 15:36:00,
2013-02-22 10:41:00,35.8,28.6,30.27,ESE,112,0.0,0.0,75,0.04,CLR,,0.20,WeatherDisplay:10.37,2013-02-22 15:41:00,
2013-02-22 10:46:00,36.1,29.0,30.27,East,90,0.0,0.0,75,0.00,CLR,,0.20,WeatherDisplay:10.37,2013-02-22 15:46:00,
2013-02-22 10:51:00,36.5,29.3,30.27,East,90,0.0,0.0,75,0.00,CLR,,0.20,WeatherDisplay:10.37,2013-02-22 15:51:00,
2013-02-22 10:56:00,36.7,29.2,30.27,North,0,0.0,0.0,74,0.00,CLR,,0.20,WeatherDisplay:10.37,2013-02-22 15:56:00,
2013-02-22 11:01:00,37.0,29.2,30.27,SE,135,0.0,0.0,73,0.00,CLR,,0.20,WeatherDisplay:10.37,2013-02-22 16:01:00,
2013-02-22 11:06:00,37.0,28.8,30.27,NE,45,0.0,0.0,72,0.00,CLR,,0.20,WeatherDisplay:10.37,2013-02-22 16:06:00,
2013-02-22 11:11:00,37.2,28.7,30.27,ENE,68,0.0,0.0,71,0.00,CLR,,0.20,WeatherDisplay:10.37,2013-02-22 16:11:00,
2013-02-22 11:16:00,37.4,28.5,30.27,ENE,68,0.0,0.0,70,0.00,CLR,,0.20,WeatherDisplay:10.37,2013-02-22 16:16:00,
2013-02-22 11:21:00,37.2,28.3,30.27,SSE,158,0.0,0.0,70,0.00,CLR,,0.20,WeatherDisplay:10.37,2013-02-22 16:21:00,
2013-02-22 11:26:00,37.4,27.8,30.27,ENE,68,0.0,0.0,68,0.00,CLR,,0.20,WeatherDisplay:10.37,2013-02-22 16:26:00,
2013-02-22 11:31:00,37.6,28.0,30.27,West,270,0.0,0.0,68,0.00,CLR,,0.20,WeatherDisplay:10.37,2013-02-22 16:31:00,
2013-02-22 11:36:00,37.6,27.6,30.27,SE,135,2.3,0.0,67,0.00,CLR,,0.20,WeatherDisplay:10.37,2013-02-22 16:36:00,
2013-02-22 11:41:00,37.6,27.6,30.27,SE,135,0.0,0.0,67,0.00,CLR,,0.20,WeatherDisplay:10.37,2013-02-22 16:41:00,
2013-02-22 11:46:00,37.4,27.4,30.27,NNE,22,0.0,0.0,67,0.00,CLR,,0.20,WeatherDisplay:10.37,2013-02-22 16:46:00,
2013-02-22 11:51:00,37.6,27.2,30.27,NNE,22,0.0,0.0,66,0.00,CLR,,0.20,WeatherDisplay:10.37,2013-02-22 16:51:00,
2013-02-22 11:56:00,37.6,27.2,30.27,South,180,0.0,0.0,66,0.00,CLR,,0.20,WeatherDisplay:10.37,2013-02-22 16:56:00,
2013-02-22 12:01:00,37.6,27.2,30.27,SW,225,0.0,0.0,66,0.00,CLR,,0.20,WeatherDisplay:10.37,2013-02-22 17:01:00,
2013-02-22 12:06:00,37.6,27.2,30.27,SE,135,0.0,0.0,66,0.00,CLR,,0.20,WeatherDisplay:10.37,2013-02-22 17:06:00,
2013-02-22 12:11:00,37.6,27.2,30.27,SE,135,0.0,0.0,66,0.00,CLR,,0.20,WeatherDisplay:10.37,2013-02-22 17:11:00,
2013-02-22 12:16:00,37.8,27.8,30.27,ENE,68,0.0,0.0,67,0.00,CLR,,0.20,WeatherDisplay:10.37,2013-02-22 17:16:00,
2013-02-22 12:21:00,37.6,27.6,30.27,North,0,0.0,0.0,67,0.00,CLR,,0.20,WeatherDisplay:10.37,2013-02-22 17:21:00,
2013-02-22 12:26:00,37.8,28.1,30.27,North,0,0.0,0.0,68,0.00,CLR,,0.20,WeatherDisplay:10.37,2013-02-22 17:26:00,
2013-02-22 12:31:00,37.8,27.8,30.27,North,0,0.0,0.0,67,0.00,CLR,,0.20,WeatherDisplay:10.37,2013-02-22 17:31:00,
2013-02-22 12:36:00,37.6,27.2,30.27,North,0,0.0,0.0,66,0.00,CLR,,0.20,WeatherDisplay:10.37,2013-02-22 17:36:00,
2013-02-22 12:41:00,37.6,27.6,30.27,North,0,0.0,0.0,67,0.00,CLR,,0.20,WeatherDisplay:10.37,2013-02-22 17:41:00,
2013-02-22 12:46:00,37.6,27.2,30.24,North,0,0.0,0.0,66,0.00,CLR,,0.20,WeatherDisplay:10.37,2013-02-22 17:46:00,
2013-02-22 12:51:00,37.4,27.1,30.24,North,0,0.0,0.0,66,0.00,CLR,,0.20,WeatherDisplay:10.37,2013-02-22 17:51:00,
2013-02-22 12:56:00,37.8,27.8,30.24,SE,135,2.6,0.0,67,0.00,CLR,,0.20,WeatherDisplay:10.37,2013-02-22 17:56:00,
2013-02-22 13:01:00,37.6,27.2,30.24,SSE,158,0.0,0.0,66,0.00,CLR,,0.20,WeatherDisplay:10.37,2013-02-22 18:01:00,
2013-02-22 13:06:00,37.6,27.2,30.24,SE,135,0.0,0.0,66,0.00,CLR,,0.20,WeatherDisplay:10.37,2013-02-22 18:06:00,
2013-02-22 13:11:00,37.8,27.4,30.24,SE,135,0.0,0.0,66,0.00,CLR,,0.20,WeatherDisplay:10.37,2013-02-22 18:11:00,
2013-02-22 13:16:00,37.9,27.6,30.24,ESE,112,0.0,0.0,66,0.00,CLR,,0.20,WeatherDisplay:10.37,2013-02-22 18:16:00,
2013-02-22 13:21:00,37.9,27.6,30.24,SE,135,0.0,0.0,66,0.00,CLR,,0.20,WeatherDisplay:10.37,2013-02-22 18:21:00,
2013-02-22 13:26:00,38.1,28.1,30.24,ESE,112,0.0,0.0,67,0.00,CLR,,0.20,WeatherDisplay:10.37,2013-02-22 18:26:00,
2013-02-22 13:31:00,38.1,27.8,30.21,SE,135,0.0,0.0,66,0.00,CLR,,0.20,WeatherDisplay:10.37,2013-02-22 18:31:00,
2013-02-22 13:36:00,38.3,27.9,30.21,ESE,112,0.0,0.0,66,0.00,CLR,,0.20,WeatherDisplay:10.37,2013-02-22 18:36:00,
2013-02-22 13:41:00,38.5,28.5,30.21,SE,135,3.5,0.0,67,0.00,CLR,,0.20,WeatherDisplay:10.37,2013-02-22 18:41:00,
2013-02-22 13:46:00,38.5,28.1,30.21,SE,135,0.0,0.0,66,0.00,CLR,,0.20,WeatherDisplay:10.37,2013-02-22 18:46:00,
2013-02-22 13:51:00,38.1,27.0,30.21,WNW,292,0.0,0.0,64,0.00,CLR,,0.20,WeatherDisplay:10.37,2013-02-22 18:51:00,
2013-02-22 13:56:00,38.7,27.9,30.21,WNW,292,0.0,0.0,65,0.00,CLR,,0.20,WeatherDisplay:10.37,2013-02-22 18:56:00,
2013-02-22 14:01:00,38.7,27.9,30.21,WNW,292,0.0,0.0,65,0.00,CLR,,0.20,WeatherDisplay:10.37,2013-02-22 19:01:00,
2013-02-22 14:06:00,38.8,28.1,30.21,West,270,0.0,0.0,65,0.00,CLR,,0.20,WeatherDisplay:10.37,2013-02-22 19:06:00,
2013-02-22 14:11:00,38.8,27.7,30.21,West,270,0.0,0.0,64,0.00,CLR,,0.20,WeatherDisplay:10.37,2013-02-22 19:11:00,
2013-02-22 14:16:00,38.7,27.1,30.21,West,270,0.0,0.0,63,0.00,CLR,,0.20,WeatherDisplay:10.37,2013-02-22 19:16:00,
2013-02-22 14:21:00,38.5,27.0,30.21,West,270,0.0,0.0,63,0.00,CLR,,0.20,WeatherDisplay:10.37,2013-02-22 19:21:00,
2013-02-22 14:26:00,38.7,27.1,30.21,West,270,0.0,0.0,63,0.00,CLR,,0.20,WeatherDisplay:10.37,2013-02-22 19:26:00,
2013-02-22 14:31:00,38.5,27.4,30.21,West,270,0.0,0.0,64,0.00,CLR,,0.20,WeatherDisplay:10.37,2013-02-22 19:31:00,
2013-02-22 14:36:00,38.7,27.5,30.21,West,270,0.0,0.0,64,0.00,CLR,,0.20,WeatherDisplay:10.37,2013-02-22 19:36:00,
2013-02-22 14:41:00,38.5,27.4,30.21,West,270,0.0,0.0,64,0.00,CLR,,0.20,WeatherDisplay:10.37,2013-02-22 19:41:00,
2013-02-22 14:46:00,38.3,27.6,30.21,West,270,0.0,0.0,65,0.00,CLR,,0.20,WeatherDisplay:10.37,2013-02-22 19:46:00,
2013-02-22 14:51:00,38.1,28.1,30.21,West,270,0.0,0.0,67,0.00,CLR,,0.20,WeatherDisplay:10.37,2013-02-22 19:51:00,
2013-02-22 14:56:00,37.9,28.3,30.21,West,270,0.0,0.0,68,0.00,CLR,,0.20,WeatherDisplay:10.37,2013-02-22 19:56:00,
2013-02-22 15:01:00,37.4,28.2,30.18,NW,315,0.0,0.0,69,0.00,CLR,,0.20,WeatherDisplay:10.37,2013-02-22 20:01:00,
2013-02-22 15:06:00,37.6,29.0,30.18,NW,315,0.0,0.0,71,0.00,CLR,,0.20,WeatherDisplay:10.37,2013-02-22 20:06:00,
2013-02-22 15:11:00,37.6,29.4,30.18,NW,315,0.0,0.0,72,0.00,CLR,,0.20,WeatherDisplay:10.37,2013-02-22 20:11:00,
2013-02-22 15:16:00,37.6,29.7,30.18,NW,315,0.0,0.0,73,0.00,CLR,,0.20,WeatherDisplay:10.37,2013-02-22 20:16:00,
2013-02-22 15:21:00,37.6,29.7,30.18,NW,315,0.0,0.0,73,0.00,CLR,,0.20,WeatherDisplay:10.37,2013-02-22 20:21:00,
2013-02-22 15:26:00,37.4,29.5,30.18,NW,315,0.0,0.0,73,0.00,CLR,,0.20,WeatherDisplay:10.37,2013-02-22 20:26:00,
2013-02-22 15:31:00,37.6,30.0,30.21,NW,315,0.0,0.0,74,0.00,CLR,,0.20,WeatherDisplay:10.37,2013-02-22 20:31:00,
2013-02-22 15:36:00,37.2,29.7,30.21,West,270,2.3,0.0,74,0.00,CLR,,0.20,WeatherDisplay:10.37,2013-02-22 20:36:00,
2013-02-22 15:41:00,37.4,29.5,30.21,West,270,0.0,0.0,73,0.00,CLR,,0.20,WeatherDisplay:10.37,2013-02-22 20:41:00,
2013-02-22 15:46:00,37.4,30.2,30.18,West,270,0.0,0.0,75,0.00,CLR,,0.20,WeatherDisplay:10.37,2013-02-22 20:46:00,
2013-02-22 15:51:00,37.4,30.2,30.18,West,270,0.0,0.0,75,0.00,CLR,,0.20,WeatherDisplay:10.37,2013-02-22 20:51:00,
2013-02-22 15:56:00,37.2,30.7,30.18,NNW,338,0.0,0.0,77,0.00,CLR,,0.20,WeatherDisplay:10.37,2013-02-22 20:56:00,
2013-02-22 16:01:00,37.0,30.8,30.18,NNW,338,0.0,0.0,78,0.04,RA,,0.24,WeatherDisplay:10.37,2013-02-22 21:01:00,
2013-02-22 16:06:00,36.7,31.1,30.18,North,0,0.0,0.0,80,0.04,RA,,0.24,WeatherDisplay:10.37,2013-02-22 21:06:00,
2013-02-22 16:11:00,36.7,32.0,30.18,North,0,0.0,0.0,83,0.04,,,0.24,WeatherDisplay:10.37,2013-02-22 21:11:00,
2013-02-22 16:16:00,36.5,32.1,30.21,North,0,0.0,0.0,84,0.04,CLR,,0.24,WeatherDisplay:10.37,2013-02-22 21:16:00,
2013-02-22 16:21:00,36.5,32.4,30.21,North,0,0.0,0.0,85,0.04,CLR,,0.24,WeatherDisplay:10.37,2013-02-22 21:21:00,
2013-02-22 16:26:00,36.3,32.5,30.21,North,0,0.0,0.0,86,0.04,CLR,,0.24,WeatherDisplay:10.37,2013-02-22 21:26:00,
2013-02-22 16:31:00,36.3,32.8,30.18,North,0,0.0,0.0,87,0.04,CLR,,0.24,WeatherDisplay:10.37,2013-02-22 21:31:00,
2013-02-22 16:36:00,36.3,33.1,30.18,North,0,0.0,0.0,88,0.04,CLR,,0.24,WeatherDisplay:10.37,2013-02-22 21:36:00,
2013-02-22 16:41:00,36.3,33.4,30.18,North,0,0.0,0.0,89,0.04,CLR,,0.24,WeatherDisplay:10.37,2013-02-22 21:41:00,
2013-02-22 16:46:00,36.3,33.4,30.18,North,0,0.0,0.0,89,0.04,CLR,,0.24,WeatherDisplay:10.37,2013-02-22 21:46:00,
2013-02-22 16:51:00,36.3,33.7,30.18,North,0,0.0,0.0,90,0.04,CLR,,0.24,WeatherDisplay:10.37,2013-02-22 21:51:00,
2013-02-22 16:56:00,36.3,33.9,30.18,North,0,0.0,0.0,91,0.04,CLR,,0.24,WeatherDisplay:10.37,2013-02-22 21:56:00,
2013-02-22 17:01:00,36.3,33.9,30.18,North,0,0.0,0.0,91,0.00,CLR,,0.24,WeatherDisplay:10.37,2013-02-22 22:01:00,
2013-02-22 17:06:00,36.1,34.0,30.18,NW,315,0.0,0.0,92,0.00,CLR,,0.24,WeatherDisplay:10.37,2013-02-22 22:06:00,
2013-02-22 17:11:00,36.3,34.2,30.18,NW,315,0.0,0.0,92,0.00,CLR,,0.24,WeatherDisplay:10.37,2013-02-22 22:11:00,
2013-02-22 17:16:00,36.3,34.5,30.21,NW,315,0.0,0.0,93,0.00,CLR,,0.24,WeatherDisplay:10.37,2013-02-22 22:16:00,
2013-02-22 17:21:00,36.3,34.5,30.21,NW,315,0.0,0.0,93,0.00,CLR,,0.24,WeatherDisplay:10.37,2013-02-22 22:21:00,
2013-02-22 17:26:00,36.3,34.8,30.21,NW,315,0.0,0.0,94,0.00,CLR,,0.24,WeatherDisplay:10.37,2013-02-22 22:26:00,
2013-02-22 17:31:00,36.3,34.8,30.21,NW,315,0.0,0.0,94,0.00,CLR,,0.24,WeatherDisplay:10.37,2013-02-22 22:31:00,
2013-02-22 17:36:00,36.3,34.8,30.21,NW,315,0.0,0.0,94,0.00,CLR,,0.24,WeatherDisplay:10.37,2013-02-22 22:36:00,
2013-02-22 17:41:00,36.3,35.0,30.21,NW,315,0.0,0.0,95,0.00,CLR,,0.24,WeatherDisplay:10.37,2013-02-22 22:41:00,
2013-02-22 17:46:00,36.3,35.0,30.21,NW,315,0.0,0.0,95,0.00,CLR,,0.24,WeatherDisplay:10.37,2013-02-22 22:46:00,
2013-02-22 17:51:00,36.1,34.8,30.21,NW,315,0.0,0.0,95,0.00,CLR,,0.24,WeatherDisplay:10.37,2013-02-22 22:51:00,
2013-02-22 17:56:00,36.1,34.8,30.21,NW,315,0.0,0.0,95,0.00,CLR,,0.24,WeatherDisplay:10.37,2013-02-22 22:56:00,
2013-02-22 18:01:00,36.1,35.1,30.18,NW,315,0.0,0.0,96,0.00,CLR,,0.24,WeatherDisplay:10.37,2013-02-22 23:01:00,
2013-02-22 18:06:00,36.1,35.1,30.18,NW,315,0.0,0.0,96,0.00,CLR,,0.24,WeatherDisplay:10.37,2013-02-22 23:06:00,
2013-02-22 18:11:00,36.1,35.1,30.18,NW,315,0.0,0.0,96,0.04,RA,,0.28,WeatherDisplay:10.37,2013-02-22 23:11:00,
2013-02-22 18:16:00,36.1,35.1,30.18,NW,315,0.0,0.0,96,0.04,RA,,0.28,WeatherDisplay:10.37,2013-02-22 23:16:00,
2013-02-22 18:21:00,36.1,35.1,30.18,NW,315,0.0,0.0,96,0.04,CLR,,0.28,WeatherDisplay:10.37,2013-02-22 23:21:00,
2013-02-22 18:26:00,36.1,35.4,30.18,NW,315,0.0,0.0,97,0.04,CLR,,0.28,WeatherDisplay:10.37,2013-02-22 23:26:00,
2013-02-22 18:31:00,36.1,35.4,30.18,NW,315,0.0,0.0,97,0.04,CLR,,0.28,WeatherDisplay:10.37,2013-02-22 23:31:00,
2013-02-22 18:36:00,36.3,35.6,30.18,NW,315,0.0,0.0,97,0.04,CLR,,0.28,WeatherDisplay:10.37,2013-02-22 23:36:00,
2013-02-22 18:41:00,36.1,35.4,30.18,NW,315,0.0,0.0,97,0.04,CLR,,0.28,WeatherDisplay:10.37,2013-02-22 23:41:00,
2013-02-22 18:46:00,36.1,35.4,30.18,NW,315,0.0,0.0,97,0.04,CLR,,0.28,WeatherDisplay:10.37,2013-02-22 23:46:00,
2013-02-22 18:51:00,36.1,35.4,30.18,NW,315,0.0,0.0,97,0.04,CLR,,0.28,WeatherDisplay:10.37,2013-02-22 23:51:00,
2013-02-22 18:56:00,36.1,35.6,30.18,NW,315,0.0,0.0,98,0.04,CLR,,0.28,WeatherDisplay:10.37,2013-02-22 23:56:00,
2013-02-22 19:01:00,36.3,35.8,30.15,NW,315,0.0,0.0,98,0.04,CLR,,0.28,WeatherDisplay:10.37,2013-02-23 00:01:00,
2013-02-22 19:06:00,36.3,35.8,30.15,NW,315,0.0,0.0,98,0.04,CLR,,0.28,WeatherDisplay:10.37,2013-02-23 00:06:00,
2013-02-22 19:11:00,36.3,35.8,30.15,NW,315,0.0,0.0,98,0.00,CLR,,0.28,WeatherDisplay:10.37,2013-02-23 00:11:00,
2013-02-22 19:16:00,36.3,35.8,30.15,NW,315,0.0,0.0,98,0.00,CLR,,0.28,WeatherDisplay:10.37,2013-02-23 00:16:00,
2013-02-22 19:21:00,36.3,35.8,30.15,NW,315,0.0,0.0,98,0.00,CLR,,0.28,WeatherDisplay:10.37,2013-02-23 00:21:00,
2013-02-22 19:26:00,36.3,35.8,30.15,NW,315,0.0,0.0,98,0.00,CLR,,0.28,WeatherDisplay:10.37,2013-02-23 00:26:00,
2013-02-22 19:31:00,36.3,35.8,30.18,NW,315,0.0,0.0,98,0.00,CLR,,0.28,WeatherDisplay:10.37,2013-02-23 00:31:00,
2013-02-22 19:36:00,36.3,35.8,30.18,NW,315,0.0,0.0,98,0.00,CLR,,0.28,WeatherDisplay:10.37,2013-02-23 00:36:00,
2013-02-22 19:41:00,36.3,35.8,30.18,NW,315,0.0,0.0,98,0.00,CLR,,0.28,WeatherDisplay:10.37,2013-02-23 00:41:00,
2013-02-22 19:46:00,36.5,36.0,30.18,NW,315,0.0,0.0,98,0.00,CLR,,0.28,WeatherDisplay:10.37,2013-02-23 00:46:00,
2013-02-22 19:51:00,36.3,35.8,30.18,NW,315,0.0,0.0,98,0.00,CLR,,0.28,WeatherDisplay:10.37,2013-02-23 00:51:00,
2013-02-22 19:56:00,36.5,36.0,30.18,NW,315,0.0,0.0,98,0.00,CLR,,0.28,WeatherDisplay:10.37,2013-02-23 00:56:00,
2013-02-22 20:01:00,36.3,35.8,30.18,NW,315,0.0,0.0,98,0.00,CLR,,0.28,WeatherDisplay:10.37,2013-02-23 01:01:00,
2013-02-22 20:06:00,36.5,36.0,30.18,NW,315,0.0,0.0,98,0.00,CLR,,0.28,WeatherDisplay:10.37,2013-02-23 01:06:00,
2013-02-22 20:11:00,36.5,36.0,30.18,NW,315,0.0,0.0,98,0.00,CLR,,0.28,WeatherDisplay:10.37,2013-02-23 01:11:00,
2013-02-22 20:16:00,36.5,36.0,30.18,WNW,292,0.0,0.0,98,0.00,CLR,,0.28,WeatherDisplay:10.37,2013-02-23 01:16:00,
2013-02-22 20:21:00,36.3,35.8,30.18,NW,315,0.0,0.0,98,0.00,CLR,,0.28,WeatherDisplay:10.37,2013-02-23 01:21:00,
2013-02-22 20:26:00,36.5,36.0,30.18,NW,315,0.0,0.0,98,0.00,CLR,,0.28,WeatherDisplay:10.37,2013-02-23 01:26:00,
2013-02-22 20:31:00,36.5,36.0,30.18,NW,315,0.0,0.0,98,0.00,CLR,,0.28,WeatherDisplay:10.37,2013-02-23 01:31:00,
2013-02-22 20:36:00,36.5,36.0,30.18,NW,315,0.0,0.0,98,0.00,CLR,,0.28,WeatherDisplay:10.37,2013-02-23 01:36:00,
2013-02-22 20:41:00,36.5,36.0,30.18,NW,315,0.0,0.0,98,0.00,CLR,,0.28,WeatherDisplay:10.37,2013-02-23 01:41:00,
2013-02-22 20:46:00,36.3,35.8,30.18,NW,315,0.0,0.0,98,0.00,CLR,,0.28,WeatherDisplay:10.37,2013-02-23 01:46:00,
2013-02-22 20:51:00,36.3,35.8,30.18,NW,315,0.0,0.0,98,0.00,CLR,,0.28,WeatherDisplay:10.37,2013-02-23 01:51:00,
2013-02-22 20:56:00,36.3,35.8,30.18,NW,315,0.0,0.0,98,0.00,CLR,,0.28,WeatherDisplay:10.37,2013-02-23 01:56:00,
2013-02-22 21:01:00,36.3,35.8,30.18,NW,315,0.0,0.0,98,0.00,CLR,,0.28,WeatherDisplay:10.37,2013-02-23 02:01:00,
2013-02-22 21:06:00,36.3,35.8,30.18,NW,315,0.0,0.0,98,0.00,CLR,,0.28,WeatherDisplay:10.37,2013-02-23 02:06:00,
2013-02-22 21:11:00,36.3,35.8,30.18,NW,315,0.0,0.0,98,0.00,CLR,,0.28,WeatherDisplay:10.37,2013-02-23 02:11:00,
2013-02-22 21:16:00,36.3,35.8,30.15,NW,315,0.0,0.0,98,0.00,CLR,,0.28,WeatherDisplay:10.37,2013-02-23 02:16:00,
2013-02-22 21:21:00,36.3,35.8,30.15,NW,315,0.0,0.0,98,0.00,CLR,,0.28,WeatherDisplay:10.37,2013-02-23 02:21:00,
2013-02-22 21:26:00,36.5,36.0,30.15,NW,315,0.0,0.0,98,0.00,CLR,,0.28,WeatherDisplay:10.37,2013-02-23 02:26:00,
2013-02-22 21:31:00,36.5,36.0,30.18,NW,315,0.0,0.0,98,0.00,CLR,,0.28,WeatherDisplay:10.37,2013-02-23 02:31:00,
2013-02-22 21:36:00,36.5,36.0,30.18,NW,315,0.0,0.0,98,0.00,CLR,,0.28,WeatherDisplay:10.37,2013-02-23 02:36:00,
2013-02-22 21:41:00,36.5,36.0,30.18,NW,315,0.0,0.0,98,0.00,CLR,,0.28,WeatherDisplay:10.37,2013-02-23 02:41:00,
2013-02-22 21:46:00,36.5,36.0,30.15,NW,315,0.0,0.0,98,0.00,CLR,,0.28,WeatherDisplay:10.37,2013-02-23 02:46:00,
2013-02-22 21:51:00,36.7,36.2,30.15,NW,315,0.0,0.0,98,0.00,CLR,,0.28,WeatherDisplay:10.37,2013-02-23 02:51:00,
2013-02-22 21:56:00,36.5,36.0,30.15,NW,315,0.0,0.0,98,0.00,CLR,,0.28,WeatherDisplay:10.37,2013-02-23 02:56:00,
2013-02-22 22:01:00,36.7,36.2,30.18,NW,315,0.0,0.0,98,0.00,CLR,,0.28,WeatherDisplay:10.37,2013-02-23 03:01:00,
2013-02-22 22:06:00,36.7,36.2,30.18,NW,315,0.0,0.0,98,0.00,CLR,,0.28,WeatherDisplay:10.37,2013-02-23 03:06:00,
2013-02-22 22:11:00,36.7,36.2,30.18,NW,315,0.0,0.0,98,0.00,CLR,,0.28,WeatherDisplay:10.37,2013-02-23 03:11:00,
2013-02-22 22:16:00,36.7,36.2,30.18,NW,315,0.0,0.0,98,0.00,CLR,,0.28,WeatherDisplay:10.37,2013-02-23 03:16:00,
2013-02-22 22:21:00,36.7,36.2,30.18,NW,315,0.0,0.0,98,0.00,CLR,,0.28,WeatherDisplay:10.37,2013-02-23 03:21:00,
2013-02-22 22:26:00,36.5,36.0,30.18,NW,315,0.0,0.0,98,0.00,CLR,,0.28,WeatherDisplay:10.37,2013-02-23 03:26:00,
2013-02-22 22:31:00,36.5,36.0,30.18,NW,315,0.0,0.0,98,0.00,CLR,,0.28,WeatherDisplay:10.37,2013-02-23 03:31:00,
2013-02-22 22:36:00,36.5,36.0,30.18,NW,315,0.0,0.0,98,0.00,CLR,,0.28,WeatherDisplay:10.37,2013-02-23 03:36:00,
2013-02-22 22:41:00,36.7,36.2,30.18,NW,315,0.0,0.0,98,0.00,CLR,,0.28,WeatherDisplay:10.37,2013-02-23 03:41:00,
2013-02-22 22:46:00,36.7,36.2,30.15,NW,315,0.0,0.0,98,0.00,CLR,,0.28,WeatherDisplay:10.37,2013-02-23 03:46:00,
2013-02-22 22:51:00,36.7,36.2,30.15,NW,315,0.0,0.0,98,0.04,RA,,0.31,WeatherDisplay:10.37,2013-02-23 03:51:00,
2013-02-22 22:56:00,36.7,36.2,30.15,NW,315,0.0,0.0,98,0.04,RA,,0.31,WeatherDisplay:10.37,2013-02-23 03:56:00,
2013-02-22 23:01:00,36.7,36.2,30.15,SSW,202,0.0,0.0,98,0.04,CLR,,0.31,WeatherDisplay:10.37,2013-02-23 04:01:00,
2013-02-22 23:06:00,36.7,36.2,30.15,SSW,202,0.0,0.0,98,0.04,CLR,,0.31,WeatherDisplay:10.37,2013-02-23 04:06:00,
2013-02-22 23:11:00,36.7,36.2,30.15,SSW,202,0.0,0.0,98,0.04,CLR,,0.31,WeatherDisplay:10.37,2013-02-23 04:11:00,
2013-02-22 23:16:00,36.7,36.2,30.15,SSW,202,0.0,0.0,98,0.04,CLR,,0.31,WeatherDisplay:10.37,2013-02-23 04:16:00,
2013-02-22 23:21:00,36.5,36.0,30.15,SSW,202,0.0,0.0,98,0.04,CLR,,0.31,WeatherDisplay:10.37,2013-02-23 04:21:00,
2013-02-22 23:26:00,36.7,36.2,30.15,West,270,0.0,0.0,98,0.04,CLR,,0.31,WeatherDisplay:10.37,2013-02-23 04:26:00,
2013-02-22 23:31:00,36.5,36.0,30.15,West,270,0.0,0.0,98,0.04,CLR,,0.31,WeatherDisplay:10.37,2013-02-23 04:31:00,
2013-02-22 23:36:00,36.7,36.2,30.15,West,270,0.0,0.0,98,0.04,CLR,,0.31,WeatherDisplay:10.37,2013-02-23 04:36:00,
2013-02-22 23:41:00,36.5,36.0,30.15,West,270,0.0,0.0,98,0.04,CLR,,0.31,WeatherDisplay:10.37,2013-02-23 04:41:00,
2013-02-22 23:46:00,36.5,36.0,30.12,West,270,0.0,0.0,98,0.04,CLR,,0.31,WeatherDisplay:10.37,2013-02-23 04:46:00,
2013-02-22 23:51:00,36.7,36.2,30.12,West,270,0.0,0.0,98,0.00,CLR,,0.31,WeatherDisplay:10.37,2013-02-23 04:51:00,
2013-02-22 23:56:00,36.7,36.2,30.12,West,270,0.0,0.0,98,0.00,CLR,,0.31,WeatherDisplay:10.37,2013-02-23 04:56:00,